sensor_id;sensor_type;location;lat;lon;timestamp;P1;durP1;ratioP1;P2;durP2;ratioP2
13481;SDS011;6813;60.352;15.746;2023-06-22T00:00:56;10.63;;;9.18;;
13481;SDS011;6813;60.352;15.746;2023-06-22T00:03:23;9.93;;;8.90;;
13481;SDS011;6813;60.352;15.746;2023-06-22T00:05:49;9.85;;;9.05;;
13481;SDS011;6813;60.352;15.746;2023-06-22T00:08:16;10.93;;;9.85;;
13481;SDS011;6813;60.352;15.746;2023-06-22T00:10:42;10.68;;;9.68;;
13481;SDS011;6813;60.352;15.746;2023-06-22T00:13:08;10.55;;;9.43;;
13481;SDS011;6813;60.352;15.746;2023-06-22T00:15:35;9.05;;;8.25;;
13481;SDS011;6813;60.352;15.746;2023-06-22T00:18:04;10.15;;;9.20;;
13481;SDS011;6813;60.352;15.746;2023-06-22T00:20:34;11.95;;;10.80;;
13481;SDS011;6813;60.352;15.746;2023-06-22T00:23:04;9.25;;;8.55;;
13481;SDS011;6813;60.352;15.746;2023-06-22T00:25:37;9.25;;;8.45;;
13481;SDS011;6813;60.352;15.746;2023-06-22T00:28:05;10.63;;;9.73;;
13481;SDS011;6813;60.352;15.746;2023-06-22T00:30:31;10.00;;;9.15;;
13481;SDS011;6813;60.352;15.746;2023-06-22T00:32:57;11.23;;;10.13;;
13481;SDS011;6813;60.352;15.746;2023-06-22T00:35:24;10.70;;;9.80;;
13481;SDS011;6813;60.352;15.746;2023-06-22T00:37:54;9.93;;;9.02;;
13481;SDS011;6813;60.352;15.746;2023-06-22T00:40:28;10.85;;;9.95;;
13481;SDS011;6813;60.352;15.746;2023-06-22T00:42:55;10.95;;;9.95;;
13481;SDS011;6813;60.352;15.746;2023-06-22T00:45:24;10.55;;;9.65;;
13481;SDS011;6813;60.352;15.746;2023-06-22T00:47:55;10.43;;;9.45;;
13481;SDS011;6813;60.352;15.746;2023-06-22T00:50:23;9.18;;;8.40;;
13481;SDS011;6813;60.352;15.746;2023-06-22T00:52:53;10.40;;;9.50;;
13481;SDS011;6813;60.352;15.746;2023-06-22T00:55:21;10.63;;;9.57;;
13481;SDS011;6813;60.352;15.746;2023-06-22T00:57:48;10.70;;;9.73;;
13481;SDS011;6813;60.352;15.746;2023-06-22T01:00:14;9.82;;;9.02;;
13481;SDS011;6813;60.352;15.746;2023-06-22T01:02:42;10.38;;;9.55;;
13481;SDS011;6813;60.352;15.746;2023-06-22T01:05:12;9.80;;;9.00;;
13481;SDS011;6813;60.352;15.746;2023-06-22T01:13:30;8.63;;;7.82;;
13481;SDS011;6813;60.352;15.746;2023-06-22T01:16:23;9.00;;;8.30;;
13481;SDS011;6813;60.352;15.746;2023-06-22T01:18:52;8.85;;;8.05;;
13481;SDS011;6813;60.352;15.746;2023-06-22T01:21:23;7.82;;;7.22;;
13481;SDS011;6813;60.352;15.746;2023-06-22T01:29:50;9.30;;;8.50;;
13481;SDS011;6813;60.352;15.746;2023-06-22T01:32:25;7.88;;;7.22;;
13481;SDS011;6813;60.352;15.746;2023-06-22T01:34:56;9.27;;;8.38;;
13481;SDS011;6813;60.352;15.746;2023-06-22T01:37:24;9.13;;;8.32;;
13481;SDS011;6813;60.352;15.746;2023-06-22T01:39:51;8.70;;;8.00;;
13481;SDS011;6813;60.352;15.746;2023-06-22T01:42:18;9.00;;;8.30;;
13481;SDS011;6813;60.352;15.746;2023-06-22T01:44:44;8.50;;;7.80;;
13481;SDS011;6813;60.352;15.746;2023-06-22T01:47:11;8.85;;;8.15;;
13481;SDS011;6813;60.352;15.746;2023-06-22T01:49:39;7.53;;;6.90;;
13481;SDS011;6813;60.352;15.746;2023-06-22T01:52:06;8.98;;;8.27;;
13481;SDS011;6813;60.352;15.746;2023-06-22T01:54:32;8.43;;;7.72;;
13481;SDS011;6813;60.352;15.746;2023-06-22T01:56:58;7.88;;;7.28;;
13481;SDS011;6813;60.352;15.746;2023-06-22T02:02:25;8.10;;;7.40;;
13481;SDS011;6813;60.352;15.746;2023-06-22T02:04:59;8.25;;;7.55;;
13481;SDS011;6813;60.352;15.746;2023-06-22T02:07:39;7.93;;;7.22;;
13481;SDS011;6813;60.352;15.746;2023-06-22T02:10:09;8.07;;;7.40;;
13481;SDS011;6813;60.352;15.746;2023-06-22T02:12:39;7.40;;;6.80;;
13481;SDS011;6813;60.352;15.746;2023-06-22T02:15:07;7.60;;;7.00;;
13481;SDS011;6813;60.352;15.746;2023-06-22T02:17:34;6.40;;;5.90;;
13481;SDS011;6813;60.352;15.746;2023-06-22T02:20:01;7.93;;;7.28;;
13481;SDS011;6813;60.352;15.746;2023-06-22T02:22:33;7.70;;;7.10;;
13481;SDS011;6813;60.352;15.746;2023-06-22T02:24:59;7.63;;;7.00;;
13481;SDS011;6813;60.352;15.746;2023-06-22T02:27:25;7.65;;;7.05;;
13481;SDS011;6813;60.352;15.746;2023-06-22T02:29:51;7.65;;;6.97;;
13481;SDS011;6813;60.352;15.746;2023-06-22T02:32:16;7.38;;;6.68;;
13481;SDS011;6813;60.352;15.746;2023-06-22T02:34:42;6.53;;;6.03;;
13481;SDS011;6813;60.352;15.746;2023-06-22T02:37:12;7.00;;;6.40;;
13481;SDS011;6813;60.352;15.746;2023-06-22T02:39:39;6.70;;;6.20;;
13481;SDS011;6813;60.352;15.746;2023-06-22T02:42:05;6.60;;;6.10;;
13481;SDS011;6813;60.352;15.746;2023-06-22T02:44:31;6.60;;;6.00;;
13481;SDS011;6813;60.352;15.746;2023-06-22T02:46:57;7.25;;;6.65;;
13481;SDS011;6813;60.352;15.746;2023-06-22T02:49:23;6.60;;;6.10;;
13481;SDS011;6813;60.352;15.746;2023-06-22T02:51:48;6.95;;;6.28;;
13481;SDS011;6813;60.352;15.746;2023-06-22T02:54:14;7.70;;;7.10;;
13481;SDS011;6813;60.352;15.746;2023-06-22T02:56:41;7.53;;;6.82;;
13481;SDS011;6813;60.352;15.746;2023-06-22T02:59:09;6.72;;;6.22;;
13481;SDS011;6813;60.352;15.746;2023-06-22T03:01:35;7.05;;;6.45;;
13481;SDS011;6813;60.352;15.746;2023-06-22T03:04:05;7.47;;;6.78;;
13481;SDS011;6813;60.352;15.746;2023-06-22T03:06:34;8.05;;;7.45;;
13481;SDS011;6813;60.352;15.746;2023-06-22T03:09:01;8.32;;;7.05;;
13481;SDS011;6813;60.352;15.746;2023-06-22T03:11:32;7.10;;;6.50;;
13481;SDS011;6813;60.352;15.746;2023-06-22T03:13:59;8.07;;;7.28;;
13481;SDS011;6813;60.352;15.746;2023-06-22T03:16:26;7.30;;;6.70;;
13481;SDS011;6813;60.352;15.746;2023-06-22T03:18:52;7.32;;;6.72;;
13481;SDS011;6813;60.352;15.746;2023-06-22T03:21:21;7.78;;;7.13;;
13481;SDS011;6813;60.352;15.746;2023-06-22T03:23:48;8.18;;;7.57;;
13481;SDS011;6813;60.352;15.746;2023-06-22T03:26:17;7.85;;;7.05;;
13481;SDS011;6813;60.352;15.746;2023-06-22T03:28:44;7.22;;;6.63;;
13481;SDS011;6813;60.352;15.746;2023-06-22T03:31:09;6.72;;;6.22;;
13481;SDS011;6813;60.352;15.746;2023-06-22T03:33:35;8.32;;;7.63;;
13481;SDS011;6813;60.352;15.746;2023-06-22T03:36:01;7.63;;;7.00;;
13481;SDS011;6813;60.352;15.746;2023-06-22T03:38:26;8.25;;;7.45;;
13481;SDS011;6813;60.352;15.746;2023-06-22T03:40:52;7.75;;;7.15;;
13481;SDS011;6813;60.352;15.746;2023-06-22T03:43:18;7.68;;;6.97;;
13481;SDS011;6813;60.352;15.746;2023-06-22T03:45:44;8.25;;;7.53;;
13481;SDS011;6813;60.352;15.746;2023-06-22T03:48:11;8.85;;;8.02;;
13481;SDS011;6813;60.352;15.746;2023-06-22T03:50:36;7.85;;;7.15;;
13481;SDS011;6813;60.352;15.746;2023-06-22T03:53:02;7.65;;;6.88;;
13481;SDS011;6813;60.352;15.746;2023-06-22T03:55:28;8.25;;;7.28;;
13481;SDS011;6813;60.352;15.746;2023-06-22T03:57:54;7.95;;;7.25;;
13481;SDS011;6813;60.352;15.746;2023-06-22T04:00:22;7.88;;;7.07;;
13481;SDS011;6813;60.352;15.746;2023-06-22T04:02:48;8.35;;;7.68;;
13481;SDS011;6813;60.352;15.746;2023-06-22T04:05:13;7.95;;;7.15;;
13481;SDS011;6813;60.352;15.746;2023-06-22T04:07:39;8.50;;;7.63;;
13481;SDS011;6813;60.352;15.746;2023-06-22T04:10:06;10.40;;;7.72;;
13481;SDS011;6813;60.352;15.746;2023-06-22T04:12:32;7.40;;;6.80;;
13481;SDS011;6813;60.352;15.746;2023-06-22T04:14:58;8.70;;;7.90;;
13481;SDS011;6813;60.352;15.746;2023-06-22T04:17:23;8.52;;;7.80;;
13481;SDS011;6813;60.352;15.746;2023-06-22T04:19:50;8.20;;;7.45;;
13481;SDS011;6813;60.352;15.746;2023-06-22T04:22:16;8.07;;;7.38;;
13481;SDS011;6813;60.352;15.746;2023-06-22T04:24:41;7.45;;;6.85;;
13481;SDS011;6813;60.352;15.746;2023-06-22T04:27:07;8.05;;;7.35;;
13481;SDS011;6813;60.352;15.746;2023-06-22T04:29:33;8.02;;;7.22;;
13481;SDS011;6813;60.352;15.746;2023-06-22T04:31:59;7.97;;;7.28;;
13481;SDS011;6813;60.352;15.746;2023-06-22T04:34:28;8.00;;;7.38;;
13481;SDS011;6813;60.352;15.746;2023-06-22T04:36:54;8.27;;;7.53;;
13481;SDS011;6813;60.352;15.746;2023-06-22T04:39:20;6.97;;;6.38;;
13481;SDS011;6813;60.352;15.746;2023-06-22T04:41:46;7.63;;;6.93;;
13481;SDS011;6813;60.352;15.746;2023-06-22T04:44:16;8.30;;;7.60;;
13481;SDS011;6813;60.352;15.746;2023-06-22T04:46:49;8.55;;;7.75;;
13481;SDS011;6813;60.352;15.746;2023-06-22T04:49:19;7.97;;;7.18;;
13481;SDS011;6813;60.352;15.746;2023-06-22T04:51:46;8.02;;;7.43;;
13481;SDS011;6813;60.352;15.746;2023-06-22T04:54:11;8.82;;;8.02;;
13481;SDS011;6813;60.352;15.746;2023-06-22T04:56:37;8.18;;;7.43;;
13481;SDS011;6813;60.352;15.746;2023-06-22T04:59:06;8.05;;;7.35;;
13481;SDS011;6813;60.352;15.746;2023-06-22T05:01:32;8.65;;;7.85;;
13481;SDS011;6813;60.352;15.746;2023-06-22T05:04:00;8.43;;;7.63;;
13481;SDS011;6813;60.352;15.746;2023-06-22T05:06:27;8.38;;;7.57;;
13481;SDS011;6813;60.352;15.746;2023-06-22T05:08:55;8.15;;;7.45;;
13481;SDS011;6813;60.352;15.746;2023-06-22T05:11:23;8.35;;;7.68;;
13481;SDS011;6813;60.352;15.746;2023-06-22T05:13:50;8.60;;;7.90;;
13481;SDS011;6813;60.352;15.746;2023-06-22T05:16:15;8.35;;;7.65;;
13481;SDS011;6813;60.352;15.746;2023-06-22T05:18:41;8.05;;;7.45;;
13481;SDS011;6813;60.352;15.746;2023-06-22T05:21:08;8.40;;;7.70;;
13481;SDS011;6813;60.352;15.746;2023-06-22T05:23:34;8.35;;;7.65;;
13481;SDS011;6813;60.352;15.746;2023-06-22T05:26:00;7.03;;;6.53;;
13481;SDS011;6813;60.352;15.746;2023-06-22T05:28:26;7.00;;;6.40;;
13481;SDS011;6813;60.352;15.746;2023-06-22T05:30:51;7.15;;;6.55;;
13481;SDS011;6813;60.352;15.746;2023-06-22T05:33:17;9.18;;;8.25;;
13481;SDS011;6813;60.352;15.746;2023-06-22T05:35:43;7.70;;;7.00;;
13481;SDS011;6813;60.352;15.746;2023-06-22T05:38:08;8.25;;;7.63;;
13481;SDS011;6813;60.352;15.746;2023-06-22T05:40:34;8.63;;;7.75;;
13481;SDS011;6813;60.352;15.746;2023-06-22T05:43:00;7.80;;;7.20;;
13481;SDS011;6813;60.352;15.746;2023-06-22T05:45:26;8.02;;;7.32;;
13481;SDS011;6813;60.352;15.746;2023-06-22T05:47:52;8.45;;;7.85;;
13481;SDS011;6813;60.352;15.746;2023-06-22T05:50:18;7.53;;;6.78;;
13481;SDS011;6813;60.352;15.746;2023-06-22T05:52:44;8.30;;;7.60;;
13481;SDS011;6813;60.352;15.746;2023-06-22T05:55:09;7.53;;;6.93;;
13481;SDS011;6813;60.352;15.746;2023-06-22T05:57:35;7.75;;;7.10;;
13481;SDS011;6813;60.352;15.746;2023-06-22T06:00:01;10.48;;;7.50;;
13481;SDS011;6813;60.352;15.746;2023-06-22T06:02:27;8.63;;;7.78;;
13481;SDS011;6813;60.352;15.746;2023-06-22T06:04:53;7.47;;;6.88;;
13481;SDS011;6813;60.352;15.746;2023-06-22T06:07:19;8.20;;;7.50;;
13481;SDS011;6813;60.352;15.746;2023-06-22T06:09:45;8.15;;;7.35;;
13481;SDS011;6813;60.352;15.746;2023-06-22T06:12:11;8.38;;;7.25;;
13481;SDS011;6813;60.352;15.746;2023-06-22T06:14:36;7.78;;;7.18;;
13481;SDS011;6813;60.352;15.746;2023-06-22T06:17:02;7.75;;;7.10;;
13481;SDS011;6813;60.352;15.746;2023-06-22T06:19:28;7.40;;;6.90;;
13481;SDS011;6813;60.352;15.746;2023-06-22T06:21:54;10.60;;;7.13;;
13481;SDS011;6813;60.352;15.746;2023-06-22T06:24:19;9.13;;;7.80;;
13481;SDS011;6813;60.352;15.746;2023-06-22T06:26:45;7.30;;;6.70;;
13481;SDS011;6813;60.352;15.746;2023-06-22T06:29:12;7.03;;;6.43;;
13481;SDS011;6813;60.352;15.746;2023-06-22T06:31:37;6.35;;;5.80;;
13481;SDS011;6813;60.352;15.746;2023-06-22T06:34:03;6.85;;;6.25;;
13481;SDS011;6813;60.352;15.746;2023-06-22T06:36:29;6.85;;;6.20;;
13481;SDS011;6813;60.352;15.746;2023-06-22T06:38:55;6.78;;;6.18;;
13481;SDS011;6813;60.352;15.746;2023-06-22T06:41:20;6.68;;;6.07;;
13481;SDS011;6813;60.352;15.746;2023-06-22T06:43:46;6.60;;;6.00;;
13481;SDS011;6813;60.352;15.746;2023-06-22T06:46:12;7.18;;;6.50;;
13481;SDS011;6813;60.352;15.746;2023-06-22T06:48:37;7.72;;;6.80;;
13481;SDS011;6813;60.352;15.746;2023-06-22T06:51:03;7.15;;;6.50;;
13481;SDS011;6813;60.352;15.746;2023-06-22T06:53:29;9.32;;;6.75;;
13481;SDS011;6813;60.352;15.746;2023-06-22T06:55:54;6.57;;;5.88;;
13481;SDS011;6813;60.352;15.746;2023-06-22T06:58:20;6.90;;;6.30;;
13481;SDS011;6813;60.352;15.746;2023-06-22T07:00:48;6.32;;;5.72;;
13481;SDS011;6813;60.352;15.746;2023-06-22T07:03:14;6.70;;;5.45;;
13481;SDS011;6813;60.352;15.746;2023-06-22T07:05:40;5.22;;;4.82;;
13481;SDS011;6813;60.352;15.746;2023-06-22T07:08:05;5.95;;;5.10;;
13481;SDS011;6813;60.352;15.746;2023-06-22T07:10:31;5.05;;;4.65;;
13481;SDS011;6813;60.352;15.746;2023-06-22T07:12:57;5.07;;;4.65;;
13481;SDS011;6813;60.352;15.746;2023-06-22T07:15:22;6.82;;;4.93;;
13481;SDS011;6813;60.352;15.746;2023-06-22T07:17:48;5.18;;;4.70;;
13481;SDS011;6813;60.352;15.746;2023-06-22T07:20:13;5.88;;;4.82;;
13481;SDS011;6813;60.352;15.746;2023-06-22T07:22:43;5.40;;;4.93;;
13481;SDS011;6813;60.352;15.746;2023-06-22T07:25:12;5.55;;;5.00;;
13481;SDS011;6813;60.352;15.746;2023-06-22T07:27:46;5.07;;;4.57;;
13481;SDS011;6813;60.352;15.746;2023-06-22T07:30:27;7.28;;;4.93;;
13481;SDS011;6813;60.352;15.746;2023-06-22T07:32:53;5.05;;;4.65;;
13481;SDS011;6813;60.352;15.746;2023-06-22T07:35:19;5.05;;;4.53;;
13481;SDS011;6813;60.352;15.746;2023-06-22T07:37:45;5.45;;;4.95;;
13481;SDS011;6813;60.352;15.746;2023-06-22T07:40:11;5.30;;;4.78;;
13481;SDS011;6813;60.352;15.746;2023-06-22T07:42:37;5.28;;;4.38;;
13481;SDS011;6813;60.352;15.746;2023-06-22T07:45:03;4.65;;;4.25;;
13481;SDS011;6813;60.352;15.746;2023-06-22T07:47:29;5.40;;;4.90;;
13481;SDS011;6813;60.352;15.746;2023-06-22T07:49:55;5.10;;;4.70;;
13481;SDS011;6813;60.352;15.746;2023-06-22T07:52:24;6.47;;;4.55;;
13481;SDS011;6813;60.352;15.746;2023-06-22T07:54:50;4.97;;;4.47;;
13481;SDS011;6813;60.352;15.746;2023-06-22T07:57:16;4.30;;;4.00;;
13481;SDS011;6813;60.352;15.746;2023-06-22T07:59:42;7.13;;;4.32;;
13481;SDS011;6813;60.352;15.746;2023-06-22T08:02:07;5.07;;;4.28;;
13481;SDS011;6813;60.352;15.746;2023-06-22T08:04:34;4.47;;;4.18;;
13481;SDS011;6813;60.352;15.746;2023-06-22T08:07:00;4.32;;;4.03;;
13481;SDS011;6813;60.352;15.746;2023-06-22T08:09:32;4.70;;;4.30;;
13481;SDS011;6813;60.352;15.746;2023-06-22T08:11:59;6.53;;;4.13;;
13481;SDS011;6813;60.352;15.746;2023-06-22T08:14:25;5.95;;;4.30;;
13481;SDS011;6813;60.352;15.746;2023-06-22T08:16:51;4.82;;;4.28;;
13481;SDS011;6813;60.352;15.746;2023-06-22T08:19:17;5.03;;;4.55;;
13481;SDS011;6813;60.352;15.746;2023-06-22T08:21:43;4.95;;;4.45;;
13481;SDS011;6813;60.352;15.746;2023-06-22T08:24:09;4.50;;;4.10;;
13481;SDS011;6813;60.352;15.746;2023-06-22T08:26:35;4.32;;;4.03;;
13481;SDS011;6813;60.352;15.746;2023-06-22T08:29:03;4.07;;;3.78;;
13481;SDS011;6813;60.352;15.746;2023-06-22T08:31:29;4.35;;;3.85;;
13481;SDS011;6813;60.352;15.746;2023-06-22T08:33:56;4.75;;;4.35;;
13481;SDS011;6813;60.352;15.746;2023-06-22T08:36:21;4.63;;;4.00;;
13481;SDS011;6813;60.352;15.746;2023-06-22T08:38:47;5.90;;;3.90;;
13481;SDS011;6813;60.352;15.746;2023-06-22T08:41:16;4.80;;;4.40;;
13481;SDS011;6813;60.352;15.746;2023-06-22T08:43:42;4.38;;;4.07;;
13481;SDS011;6813;60.352;15.746;2023-06-22T08:46:09;4.20;;;3.90;;
13481;SDS011;6813;60.352;15.746;2023-06-22T08:48:35;6.90;;;4.72;;
13481;SDS011;6813;60.352;15.746;2023-06-22T08:51:01;4.28;;;3.90;;
13481;SDS011;6813;60.352;15.746;2023-06-22T08:53:28;3.83;;;3.50;;
13481;SDS011;6813;60.352;15.746;2023-06-22T08:55:54;3.88;;;3.58;;
13481;SDS011;6813;60.352;15.746;2023-06-22T08:58:19;3.72;;;3.53;;
13481;SDS011;6813;60.352;15.746;2023-06-22T09:00:46;3.85;;;3.55;;
13481;SDS011;6813;60.352;15.746;2023-06-22T09:03:12;3.92;;;3.63;;
13481;SDS011;6813;60.352;15.746;2023-06-22T09:05:38;3.88;;;3.60;;
13481;SDS011;6813;60.352;15.746;2023-06-22T09:08:04;3.67;;;3.38;;
13481;SDS011;6813;60.352;15.746;2023-06-22T09:10:30;4.75;;;3.83;;
13481;SDS011;6813;60.352;15.746;2023-06-22T09:12:56;3.95;;;3.65;;
13481;SDS011;6813;60.352;15.746;2023-06-22T09:15:22;3.88;;;3.50;;
13481;SDS011;6813;60.352;15.746;2023-06-22T09:17:48;3.45;;;3.22;;
13481;SDS011;6813;60.352;15.746;2023-06-22T09:20:14;3.63;;;3.35;;
13481;SDS011;6813;60.352;15.746;2023-06-22T09:22:40;3.58;;;3.38;;
13481;SDS011;6813;60.352;15.746;2023-06-22T09:25:06;5.47;;;3.40;;
13481;SDS011;6813;60.352;15.746;2023-06-22T09:27:32;4.20;;;3.55;;
13481;SDS011;6813;60.352;15.746;2023-06-22T09:29:58;3.38;;;3.17;;
13481;SDS011;6813;60.352;15.746;2023-06-22T09:32:27;3.70;;;3.40;;
13481;SDS011;6813;60.352;15.746;2023-06-22T09:34:52;3.60;;;3.30;;
13481;SDS011;6813;60.352;15.746;2023-06-22T09:37:18;4.63;;;3.28;;
13481;SDS011;6813;60.352;15.746;2023-06-22T09:39:44;3.20;;;3.00;;
13481;SDS011;6813;60.352;15.746;2023-06-22T09:42:09;3.28;;;3.08;;
13481;SDS011;6813;60.352;15.746;2023-06-22T09:44:35;8.80;;;3.33;;
13481;SDS011;6813;60.352;15.746;2023-06-22T09:47:01;3.67;;;2.90;;
13481;SDS011;6813;60.352;15.746;2023-06-22T09:49:27;3.30;;;3.10;;
13481;SDS011;6813;60.352;15.746;2023-06-22T09:51:52;3.30;;;2.90;;
13481;SDS011;6813;60.352;15.746;2023-06-22T09:54:18;3.15;;;2.95;;
13481;SDS011;6813;60.352;15.746;2023-06-22T09:56:45;3.60;;;3.30;;
13481;SDS011;6813;60.352;15.746;2023-06-22T09:59:10;3.03;;;2.83;;
13481;SDS011;6813;60.352;15.746;2023-06-22T10:01:36;3.35;;;3.13;;
13481;SDS011;6813;60.352;15.746;2023-06-22T10:04:02;5.97;;;3.03;;
13481;SDS011;6813;60.352;15.746;2023-06-22T10:06:28;3.35;;;3.15;;
13481;SDS011;6813;60.352;15.746;2023-06-22T10:08:54;3.72;;;3.28;;
13481;SDS011;6813;60.352;15.746;2023-06-22T10:11:19;3.40;;;3.10;;
13481;SDS011;6813;60.352;15.746;2023-06-22T10:13:47;3.55;;;3.25;;
13481;SDS011;6813;60.352;15.746;2023-06-22T10:16:13;3.38;;;3.17;;
13481;SDS011;6813;60.352;15.746;2023-06-22T10:18:39;3.28;;;3.05;;
13481;SDS011;6813;60.352;15.746;2023-06-22T10:21:04;3.53;;;2.80;;
13481;SDS011;6813;60.352;15.746;2023-06-22T10:23:30;5.70;;;3.03;;
13481;SDS011;6813;60.352;15.746;2023-06-22T10:25:56;3.30;;;3.10;;
13481;SDS011;6813;60.352;15.746;2023-06-22T10:28:23;3.30;;;3.00;;
13481;SDS011;6813;60.352;15.746;2023-06-22T10:30:48;2.63;;;2.53;;
13481;SDS011;6813;60.352;15.746;2023-06-22T10:33:14;3.05;;;2.85;;
13481;SDS011;6813;60.352;15.746;2023-06-22T10:35:40;2.90;;;2.70;;
13481;SDS011;6813;60.352;15.746;2023-06-22T10:38:07;2.95;;;2.75;;
13481;SDS011;6813;60.352;15.746;2023-06-22T10:40:33;4.20;;;2.75;;
13481;SDS011;6813;60.352;15.746;2023-06-22T10:42:59;3.05;;;2.83;;
13481;SDS011;6813;60.352;15.746;2023-06-22T10:45:25;4.25;;;2.90;;
13481;SDS011;6813;60.352;15.746;2023-06-22T10:47:52;3.45;;;3.25;;
13481;SDS011;6813;60.352;15.746;2023-06-22T10:50:17;2.95;;;2.75;;
13481;SDS011;6813;60.352;15.746;2023-06-22T10:52:45;3.90;;;2.78;;
13481;SDS011;6813;60.352;15.746;2023-06-22T10:55:10;3.35;;;3.05;;
13481;SDS011;6813;60.352;15.746;2023-06-22T10:57:36;3.05;;;2.80;;
13481;SDS011;6813;60.352;15.746;2023-06-22T11:00:04;3.55;;;3.00;;
13481;SDS011;6813;60.352;15.746;2023-06-22T11:02:31;2.67;;;2.47;;
13481;SDS011;6813;60.352;15.746;2023-06-22T11:04:57;3.78;;;3.03;;
13481;SDS011;6813;60.352;15.746;2023-06-22T11:07:25;4.03;;;2.63;;
13481;SDS011;6813;60.352;15.746;2023-06-22T11:09:53;4.75;;;2.88;;
13481;SDS011;6813;60.352;15.746;2023-06-22T11:12:19;3.38;;;3.15;;
13481;SDS011;6813;60.352;15.746;2023-06-22T11:14:45;3.55;;;2.88;;
13481;SDS011;6813;60.352;15.746;2023-06-22T11:17:11;3.00;;;2.80;;
13481;SDS011;6813;60.352;15.746;2023-06-22T11:19:36;2.80;;;2.60;;
13481;SDS011;6813;60.352;15.746;2023-06-22T11:22:02;2.90;;;2.42;;
13481;SDS011;6813;60.352;15.746;2023-06-22T11:24:28;5.10;;;2.90;;
13481;SDS011;6813;60.352;15.746;2023-06-22T11:26:53;2.67;;;2.50;;
13481;SDS011;6813;60.352;15.746;2023-06-22T11:29:19;2.72;;;2.53;;
13481;SDS011;6813;60.352;15.746;2023-06-22T11:31:45;4.22;;;2.35;;
13481;SDS011;6813;60.352;15.746;2023-06-22T11:34:10;3.90;;;2.85;;
13481;SDS011;6813;60.352;15.746;2023-06-22T11:36:36;2.70;;;2.50;;
13481;SDS011;6813;60.352;15.746;2023-06-22T11:39:02;2.70;;;2.50;;
13481;SDS011;6813;60.352;15.746;2023-06-22T11:41:28;3.40;;;2.45;;
13481;SDS011;6813;60.352;15.746;2023-06-22T11:43:54;4.20;;;2.42;;
13481;SDS011;6813;60.352;15.746;2023-06-22T11:46:19;3.00;;;2.80;;
13481;SDS011;6813;60.352;15.746;2023-06-22T11:48:45;3.08;;;2.42;;
13481;SDS011;6813;60.352;15.746;2023-06-22T11:51:11;8.98;;;2.78;;
13481;SDS011;6813;60.352;15.746;2023-06-22T11:53:37;4.70;;;2.50;;
13481;SDS011;6813;60.352;15.746;2023-06-22T11:56:02;2.95;;;2.75;;
13481;SDS011;6813;60.352;15.746;2023-06-22T11:58:28;3.80;;;2.67;;
13481;SDS011;6813;60.352;15.746;2023-06-22T12:00:54;2.38;;;2.28;;
13481;SDS011;6813;60.352;15.746;2023-06-22T12:03:20;3.95;;;2.30;;
13481;SDS011;6813;60.352;15.746;2023-06-22T12:05:49;2.30;;;2.20;;
13481;SDS011;6813;60.352;15.746;2023-06-22T12:08:17;3.65;;;2.40;;
13481;SDS011;6813;60.352;15.746;2023-06-22T12:10:43;2.25;;;2.15;;
13481;SDS011;6813;60.352;15.746;2023-06-22T12:13:09;2.35;;;2.15;;
13481;SDS011;6813;60.352;15.746;2023-06-22T12:15:35;5.82;;;2.65;;
13481;SDS011;6813;60.352;15.746;2023-06-22T12:18:00;2.40;;;2.20;;
13481;SDS011;6813;60.352;15.746;2023-06-22T12:20:26;2.42;;;2.22;;
13481;SDS011;6813;60.352;15.746;2023-06-22T12:22:52;2.28;;;2.17;;
13481;SDS011;6813;60.352;15.746;2023-06-22T12:25:19;2.58;;;2.38;;
13481;SDS011;6813;60.352;15.746;2023-06-22T12:27:44;2.60;;;2.40;;
13481;SDS011;6813;60.352;15.746;2023-06-22T12:30:10;3.00;;;2.17;;
13481;SDS011;6813;60.352;15.746;2023-06-22T12:32:36;2.22;;;2.13;;
13481;SDS011;6813;60.352;15.746;2023-06-22T12:35:02;2.88;;;2.67;;
13481;SDS011;6813;60.352;15.746;2023-06-22T12:37:28;3.00;;;2.20;;
13481;SDS011;6813;60.352;15.746;2023-06-22T12:39:55;2.50;;;2.30;;
13481;SDS011;6813;60.352;15.746;2023-06-22T12:42:20;2.47;;;1.90;;
13481;SDS011;6813;60.352;15.746;2023-06-22T12:44:46;3.15;;;2.00;;
13481;SDS011;6813;60.352;15.746;2023-06-22T12:47:12;2.40;;;2.20;;
13481;SDS011;6813;60.352;15.746;2023-06-22T12:49:38;3.10;;;2.33;;
13481;SDS011;6813;60.352;15.746;2023-06-22T12:52:08;2.67;;;2.40;;
13481;SDS011;6813;60.352;15.746;2023-06-22T12:54:36;3.78;;;2.13;;
13481;SDS011;6813;60.352;15.746;2023-06-22T12:57:01;3.58;;;2.20;;
13481;SDS011;6813;60.352;15.746;2023-06-22T12:59:27;2.50;;;1.80;;
13481;SDS011;6813;60.352;15.746;2023-06-22T13:01:53;5.70;;;2.17;;
13481;SDS011;6813;60.352;15.746;2023-06-22T13:04:18;2.67;;;2.20;;
13481;SDS011;6813;60.352;15.746;2023-06-22T13:06:44;2.20;;;2.00;;
13481;SDS011;6813;60.352;15.746;2023-06-22T13:09:14;6.35;;;2.00;;
13481;SDS011;6813;60.352;15.746;2023-06-22T13:11:41;3.35;;;2.00;;
13481;SDS011;6813;60.352;15.746;2023-06-22T13:14:07;2.15;;;2.05;;
13481;SDS011;6813;60.352;15.746;2023-06-22T13:16:33;2.22;;;2.00;;
13481;SDS011;6813;60.352;15.746;2023-06-22T13:18:59;2.40;;;2.17;;
13481;SDS011;6813;60.352;15.746;2023-06-22T13:21:24;2.33;;;2.17;;
13481;SDS011;6813;60.352;15.746;2023-06-22T13:23:50;3.97;;;1.95;;
13481;SDS011;6813;60.352;15.746;2023-06-22T13:26:16;2.10;;;1.90;;
13481;SDS011;6813;60.352;15.746;2023-06-22T13:28:42;2.53;;;2.10;;
13481;SDS011;6813;60.352;15.746;2023-06-22T13:31:07;2.17;;;1.98;;
13481;SDS011;6813;60.352;15.746;2023-06-22T13:33:33;1.85;;;1.75;;
13481;SDS011;6813;60.352;15.746;2023-06-22T13:35:59;1.90;;;1.80;;
13481;SDS011;6813;60.352;15.746;2023-06-22T13:38:24;2.47;;;2.00;;
13481;SDS011;6813;60.352;15.746;2023-06-22T13:40:50;6.70;;;2.10;;
13481;SDS011;6813;60.352;15.746;2023-06-22T13:43:16;1.80;;;1.70;;
13481;SDS011;6813;60.352;15.746;2023-06-22T13:45:42;2.00;;;1.80;;
13481;SDS011;6813;60.352;15.746;2023-06-22T13:48:08;2.75;;;1.95;;
13481;SDS011;6813;60.352;15.746;2023-06-22T13:50:33;2.00;;;1.90;;
13481;SDS011;6813;60.352;15.746;2023-06-22T13:52:59;2.83;;;1.83;;
13481;SDS011;6813;60.352;15.746;2023-06-22T13:55:25;1.90;;;1.80;;
13481;SDS011;6813;60.352;15.746;2023-06-22T13:57:51;1.95;;;1.85;;
13481;SDS011;6813;60.352;15.746;2023-06-22T14:00:17;1.80;;;1.70;;
13481;SDS011;6813;60.352;15.746;2023-06-22T14:02:43;2.45;;;1.85;;
13481;SDS011;6813;60.352;15.746;2023-06-22T14:05:09;2.22;;;1.77;;
13481;SDS011;6813;60.352;15.746;2023-06-22T14:07:36;5.22;;;2.03;;
13481;SDS011;6813;60.352;15.746;2023-06-22T14:10:02;2.10;;;1.67;;
13481;SDS011;6813;60.352;15.746;2023-06-22T14:12:28;2.25;;;2.08;;
13481;SDS011;6813;60.352;15.746;2023-06-22T14:14:54;2.05;;;1.95;;
13481;SDS011;6813;60.352;15.746;2023-06-22T14:17:20;2.15;;;1.80;;
13481;SDS011;6813;60.352;15.746;2023-06-22T14:19:50;1.70;;;1.60;;
13481;SDS011;6813;60.352;15.746;2023-06-22T14:22:19;2.20;;;1.83;;
13481;SDS011;6813;60.352;15.746;2023-06-22T14:24:45;2.60;;;1.77;;
13481;SDS011;6813;60.352;15.746;2023-06-22T14:27:12;2.63;;;2.10;;
13481;SDS011;6813;60.352;15.746;2023-06-22T14:29:37;3.25;;;1.80;;
13481;SDS011;6813;60.352;15.746;2023-06-22T14:32:03;2.25;;;2.10;;
13481;SDS011;6813;60.352;15.746;2023-06-22T14:34:31;1.85;;;1.75;;
13481;SDS011;6813;60.352;15.746;2023-06-22T14:36:57;2.67;;;1.90;;
13481;SDS011;6813;60.352;15.746;2023-06-22T14:39:23;1.88;;;1.77;;
13481;SDS011;6813;60.352;15.746;2023-06-22T14:41:49;1.95;;;1.85;;
13481;SDS011;6813;60.352;15.746;2023-06-22T14:44:15;3.60;;;1.80;;
13481;SDS011;6813;60.352;15.746;2023-06-22T14:46:41;2.13;;;1.92;;
13481;SDS011;6813;60.352;15.746;2023-06-22T14:49:07;4.65;;;2.00;;
13481;SDS011;6813;60.352;15.746;2023-06-22T14:51:32;2.05;;;1.92;;
13481;SDS011;6813;60.352;15.746;2023-06-22T14:53:58;2.35;;;2.10;;
13481;SDS011;6813;60.352;15.746;2023-06-22T14:56:24;2.65;;;1.80;;
13481;SDS011;6813;60.352;15.746;2023-06-22T14:58:49;2.25;;;2.05;;